Time;durP1;ratioP1;P1;durP2;ratioP2;P2;SDS_P1;SDS_P2;PMS_P1;PMS_P2;Temp;Humidity;BMP_temperature;BMP_pressure;BME280_temperature;BME280_humidity;BME280_pressure;Samples;Min_cycle;Max_cycle;Signal;HPM_P1;HPM_P2
2021/06/23 00:00:32;;;;;;;1999.90;999.90;;;;;;;21.08;95.07;95599.44;5048483;28;20707;-68
2021/06/23 00:03:01;;;;;;;1999.90;999.90;;;;;;;21.07;95.14;95602.44;5048505;28;20681;-67
2021/06/23 00:05:28;;;;;;;1999.90;999.90;;;;;;;21.12;94.68;95600.22;5048716;28;20292;-68
2021/06/23 00:07:55;;;;;;;1999.90;999.90;;;;;;;21.16;93.89;95609.03;5048687;28;20197;-68
2021/06/23 00:10:22;;;;;;;1999.90;999.90;;;;;;;21.18;93.42;95613.94;5048516;28;20303;-68
2021/06/23 00:12:51;;;;;;;1999.90;999.90;;;;;;;21.22;93.37;95614.75;5051508;28;20200;-67
2021/06/23 00:15:19;;;;;;;1999.90;999.90;;;;;;;21.17;93.30;95615.81;5052773;28;20193;-68
2021/06/23 00:17:47;;;;;;;1999.90;999.90;;;;;;;21.09;94.63;95614.16;5052739;28;20674;-68
2021/06/23 00:20:16;;;;;;;1999.90;999.90;;;;;;;21.02;96.36;95622.03;5052769;28;20208;-68
2021/06/23 00:22:43;;;;;;;1999.90;999.90;;;;;;;20.79;99.28;95621.28;5052779;28;20193;-68
2021/06/23 00:25:12;;;;;;;1999.90;999.90;;;;;;;20.83;99.73;95624.72;5052649;28;20197;-68
2021/06/23 00:27:39;;;;;;;1999.90;999.90;;;;;;;20.82;100.00;95631.16;5052648;28;20262;-68
2021/06/23 00:30:07;;;;;;;1999.90;999.90;;;;;;;20.83;100.00;95627.38;5052287;28;20673;-68
2021/06/23 00:32:37;;;;;;;1999.90;999.90;;;;;;;20.71;100.00;95617.03;5052920;28;20197;-67
2021/06/23 00:35:04;;;;;;;1999.90;999.90;;;;;;;20.71;100.00;95619.66;5052585;28;20189;-68
2021/06/23 00:37:33;;;;;;;1999.90;999.90;;;;;;;20.69;98.95;95622.66;5052454;28;20209;-68
2021/06/23 00:40:00;;;;;;;1999.90;999.90;;;;;;;20.69;98.38;95627.16;5052160;28;20647;-68
2021/06/23 00:42:28;;;;;;;1999.90;999.90;;;;;;;20.53;99.32;95620.13;5052186;28;20236;-68
2021/06/23 00:44:55;;;;;;;1999.90;999.90;;;;;;;20.52;99.54;95618.59;5052117;28;20204;-68
2021/06/23 00:47:26;;;;;;;1999.90;999.90;;;;;;;20.53;99.59;95617.50;5052159;28;20209;-69
2021/06/23 00:49:54;;;;;;;1999.90;999.90;;;;;;;20.46;100.00;95625.31;5051992;28;20200;-69
2021/06/23 00:52:21;;;;;;;1999.90;999.90;;;;;;;20.46;100.00;95617.41;5052246;28;20193;-69
2021/06/23 00:54:52;;;;;;;1999.90;999.90;;;;;;;20.42;100.00;95608.63;5051673;28;20684;-69
2021/06/23 00:57:20;;;;;;;1999.90;999.90;;;;;;;20.33;100.00;95616.03;5051928;28;20189;-68
2021/06/23 00:59:52;;;;;;;1999.90;999.90;;;;;;;20.30;100.00;95610.69;5051995;28;20227;-68
2021/06/23 01:02:20;;;;;;;1999.90;999.90;;;;;;;20.24;100.00;95604.16;5052110;28;20185;-67
2021/06/23 01:04:48;;;;;;;1999.90;999.90;;;;;;;20.22;100.00;95601.88;5051725;28;20216;-67
2021/06/23 01:07:16;;;;;;;1999.90;999.90;;;;;;;20.20;100.00;95596.97;5051552;28;20236;-67
2021/06/23 01:09:44;;;;;;;1999.90;999.90;;;;;;;20.18;100.00;95598.41;5051558;28;20197;-68
2021/06/23 01:12:42;;;;;;;1999.90;999.90;;;;;;;20.19;100.00;95592.03;5051861;28;20197;-68
2021/06/23 01:15:10;;;;;;;1999.90;999.90;;;;;;;20.04;100.00;95592.91;5051774;28;20223;-68
2021/06/23 01:17:37;;;;;;;1999.90;999.90;;;;;;;20.14;100.00;95598.34;5052119;28;20197;-68
2021/06/23 01:20:07;;;;;;;1999.90;999.90;;;;;;;20.24;100.00;95597.00;5051417;28;20784;-67
2021/06/23 01:22:38;;;;;;;1999.90;999.90;;;;;;;20.15;100.00;95601.75;5051020;28;20205;-68
2021/06/23 01:25:08;;;;;;;1999.90;999.90;;;;;;;20.12;100.00;95605.13;5050279;28;20216;-67
2021/06/23 01:27:35;;;;;;;1999.90;999.90;;;;;;;20.04;100.00;95606.84;5051373;28;20192;-68
2021/06/23 01:30:03;;;;;;;1999.90;999.90;;;;;;;20.02;100.00;95603.81;5051456;28;20201;-68
2021/06/23 01:32:32;;;;;;;1999.90;999.90;;;;;;;19.97;100.00;95603.34;5051270;28;20330;-68
2021/06/23 01:34:59;;;;;;;1999.90;999.90;;;;;;;19.98;100.00;95616.16;5051064;28;20693;-67
2021/06/23 01:37:26;;;;;;;1999.90;999.90;;;;;;;20.05;100.00;95612.91;5051046;28;20197;-71
2021/06/23 01:39:55;;;;;;;1999.90;999.90;;;;;;;20.04;100.00;95604.22;5048290;28;20228;-69
2021/06/23 01:42:22;;;;;;;1999.90;999.90;;;;;;;20.06;100.00;95601.22;5050164;28;20243;-71
2021/06/23 01:44:49;;;;;;;1999.90;999.90;;;;;;;19.97;100.00;95601.47;5050833;28;20201;-70
2021/06/23 01:47:16;;;;;;;1999.90;999.90;;;;;;;19.94;100.00;95599.50;5050823;28;20231;-69
2021/06/23 01:49:43;;;;;;;1999.90;999.90;;;;;;;19.93;100.00;95599.84;5051375;28;20197;-71
2021/06/23 01:52:10;;;;;;;1999.90;999.90;;;;;;;19.84;100.00;95610.63;5050585;28;20201;-70
2021/06/23 01:54:41;;;;;;;1999.90;999.90;;;;;;;19.77;100.00;95608.63;5051089;28;20220;-70
2021/06/23 01:57:10;;;;;;;1999.90;999.90;;;;;;;19.71;100.00;95606.63;5050448;28;20182;-70
2021/06/23 01:59:38;;;;;;;1999.90;999.90;;;;;;;19.70;100.00;95608.50;5050881;28;20220;-71
2021/06/23 02:02:14;;;;;;;1999.90;999.90;;;;;;;19.67;100.00;95608.44;5044661;28;20201;-70
2021/06/23 02:04:49;;;;;;;1999.90;999.90;;;;;;;19.67;100.00;95609.22;5041952;28;20193;-70
2021/06/23 02:08:04;;;;;;;1999.90;999.90;;;;;;;19.73;100.00;95605.16;5030280;28;20186;-70
2021/06/23 02:11:06;;;;;;;1999.90;999.90;;;;;;;19.60;100.00;95618.84;5012608;28;20201;-71
2021/06/23 02:14:07;;;;;;;1999.90;999.90;;;;;;;19.59;100.00;95619.94;5005251;28;20197;-70
2021/06/23 02:16:38;;;;;;;1999.90;999.90;;;;;;;19.57;100.00;95622.94;5028567;28;20210;-70
2021/06/23 02:19:08;;;;;;;1999.90;999.90;;;;;;;19.46;100.00;95619.31;5030025;28;20263;-69
2021/06/23 02:21:38;;;;;;;1999.90;999.90;;;;;;;19.45;100.00;95619.66;5033744;28;20200;-70
2021/06/23 02:24:06;;;;;;;1999.90;999.90;;;;;;;19.32;100.00;95617.16;5050367;28;20301;-71
2021/06/23 02:26:34;;;;;;;1999.90;999.90;;;;;;;19.36;100.00;95611.94;5041570;28;20660;-72
2021/06/23 02:29:01;;;;;;;1999.90;999.90;;;;;;;19.25;100.00;95614.34;5049979;28;20197;-70
2021/06/23 02:31:30;;;;;;;1999.90;999.90;;;;;;;19.30;100.00;95613.31;5049928;28;20692;-70
2021/06/23 02:33:59;;;;;;;1999.90;999.90;;;;;;;19.28;100.00;95618.91;5050345;28;20252;-70
2021/06/23 02:36:27;;;;;;;1999.90;999.90;;;;;;;19.23;100.00;95623.69;5048720;28;20255;-70
2021/06/23 02:38:54;;;;;;;1999.90;999.90;;;;;;;19.15;100.00;95622.81;5049903;28;20229;-70
2021/06/23 02:41:21;;;;;;;1999.90;999.90;;;;;;;19.11;100.00;95637.00;5049919;28;20193;-70
2021/06/23 02:43:49;;;;;;;1999.90;999.90;;;;;;;19.16;100.00;95639.38;5049867;28;20197;-69
2021/06/23 02:46:17;;;;;;;1999.90;999.90;;;;;;;19.17;100.00;95636.41;5049456;28;20197;-71
2021/06/23 02:48:44;;;;;;;1999.90;999.90;;;;;;;19.17;100.00;95631.13;5049567;28;20201;-70
2021/06/23 02:51:19;;;;;;;1999.90;999.90;;;;;;;19.17;100.00;95630.38;5049058;28;20738;-69
2021/06/23 02:53:48;;;;;;;1999.90;999.90;;;;;;;19.15;100.00;95635.97;5049485;28;20287;-71
2021/06/23 02:56:17;;;;;;;1999.90;999.90;;;;;;;19.20;100.00;95640.22;5049477;28;20635;-70
2021/06/23 02:58:45;;;;;;;1999.90;999.90;;;;;;;19.35;100.00;95647.31;5049501;28;20825;-69
2021/06/23 03:01:14;;;;;;;1999.90;999.90;;;;;;;19.29;100.00;95657.34;5049721;28;20204;-71
2021/06/23 03:03:41;;;;;;;1999.90;999.90;;;;;;;19.27;100.00;95659.59;5043282;28;20201;-71
2021/06/23 03:06:09;;;;;;;1999.90;999.90;;;;;;;19.37;100.00;95666.19;5028740;28;20444;-68
2021/06/23 03:08:39;;;;;;;1999.90;999.90;;;;;;;19.41;100.00;95669.66;5046890;28;20335;-68
2021/06/23 03:11:06;;;;;;;1999.90;999.90;;;;;;;19.41;100.00;95661.75;5049439;28;20228;-68
2021/06/23 03:13:33;;;;;;;1999.90;999.90;;;;;;;19.42;100.00;95667.78;5049273;28;20205;-67
2021/06/23 03:16:00;;;;;;;1999.90;999.90;;;;;;;19.44;100.00;95676.09;5049314;28;21000;-68
2021/06/23 03:18:32;;;;;;;1999.90;999.90;;;;;;;19.45;100.00;95672.38;5049012;28;20204;-68
2021/06/23 03:20:59;;;;;;;1999.90;999.90;;;;;;;19.45;100.00;95672.38;5049223;28;20539;-70
2021/06/23 03:23:26;;;;;;;1999.90;999.90;;;;;;;19.35;100.00;95674.44;5048384;28;20263;-72
2021/06/23 03:25:55;;;;;;;1999.90;999.90;;;;;;;19.25;100.00;95680.22;5042756;28;20288;-71
2021/06/23 03:28:22;;;;;;;1999.90;999.90;;;;;;;19.26;100.00;95684.41;5046231;28;20224;-69
2021/06/23 03:30:49;;;;;;;1999.90;999.90;;;;;;;19.23;100.00;95684.31;5046527;28;20274;-69
2021/06/23 03:33:16;;;;;;;1999.90;999.90;;;;;;;19.29;100.00;95680.31;5042392;28;20746;-67
2021/06/23 03:35:43;;;;;;;1999.90;999.90;;;;;;;19.25;100.00;95690.78;5048811;28;20209;-68
2021/06/23 03:38:10;;;;;;;1999.90;999.90;;;;;;;19.33;100.00;95691.69;5048257;28;20205;-68
2021/06/23 03:40:38;;;;;;;1999.90;999.90;;;;;;;19.27;100.00;95693.84;5047778;28;20220;-68
2021/06/23 03:43:06;;;;;;;1999.90;999.90;;;;;;;19.45;100.00;95693.47;5047301;28;20237;-68
2021/06/23 03:45:33;;;;;;;1999.90;999.90;;;;;;;19.56;100.00;95692.59;5048781;28;20204;-67
2021/06/23 03:48:00;;;;;;;1999.90;999.90;;;;;;;19.68;100.00;95702.25;5048215;28;20677;-67
2021/06/23 03:50:29;;;;;;;1999.90;999.90;;;;;;;19.78;100.00;95701.69;5038933;28;20705;-67
2021/06/23 03:52:56;;;;;;;1999.90;999.90;;;;;;;19.90;99.81;95703.44;5026600;28;20240;-68
2021/06/23 03:55:26;;;;;;;1999.90;999.90;;;;;;;19.98;99.26;95703.22;5026987;28;20581;-68
2021/06/23 03:57:56;;;;;;;1999.90;999.90;;;;;;;20.13;98.01;95712.94;5026781;28;20190;-68
2021/06/23 04:00:26;;;;;;;1999.90;999.90;;;;;;;20.16;96.85;95712.25;5026427;28;20218;-68
2021/06/23 04:02:53;;;;;;;1999.90;999.90;;;;;;;20.09;96.94;95722.66;5026781;28;20624;-68
2021/06/23 04:05:21;;;;;;;1999.90;999.90;;;;;;;20.06;97.74;95725.25;5046323;28;20277;-67
2021/06/23 04:07:48;;;;;;;1999.90;999.90;;;;;;;20.22;97.18;95725.94;5047888;28;20204;-68
2021/06/23 04:10:16;;;;;;;1999.90;999.90;;;;;;;20.28;96.77;95724.53;5048624;28;20208;-68
2021/06/23 04:12:43;;;;;;;1999.90;999.90;;;;;;;20.26;97.20;95721.47;5048874;28;20197;-67
2021/06/23 04:15:12;;;;;;;1999.90;999.90;;;;;;;20.33;97.08;95726.91;5048536;28;20193;-68
2021/06/23 04:17:41;;;;;;;1999.90;999.90;;;;;;;20.43;97.15;95726.34;5048956;28;20201;-67
2021/06/23 04:20:10;;;;;;;1999.90;999.90;;;;;;;20.52;96.54;95729.50;5048712;28;20297;-74
2021/06/23 04:22:38;;;;;;;1999.90;999.90;;;;;;;20.68;96.26;95741.84;5048793;28;20189;-67
2021/06/23 04:25:08;;;;;;;1999.90;999.90;;;;;;;20.74;94.92;95733.28;5048792;28;20205;-68
2021/06/23 04:27:36;;;;;;;1999.90;999.90;;;;;;;20.82;95.13;95731.56;5049066;28;20185;-68
2021/06/23 04:30:06;;;;;;;1999.90;999.90;;;;;;;21.08;94.15;95736.84;5048834;28;20205;-68
2021/06/23 04:32:34;;;;;;;1999.90;999.90;;;;;;;21.31;93.27;95737.63;5048520;28;20189;-68
2021/06/23 04:35:05;;;;;;;1999.90;999.90;;;;;;;21.66;92.80;95741.91;5048489;28;20239;-68
2021/06/23 04:37:33;;;;;;;1999.90;999.90;;;;;;;22.17;91.56;95740.28;5048478;28;20197;-68
2021/06/23 04:40:00;;;;;;;1999.90;999.90;;;;;;;22.48;90.49;95743.63;5048174;28;20225;-67
2021/06/23 04:42:27;;;;;;;1999.90;999.90;;;;;;;22.65;90.47;95743.81;5048139;28;20241;-68
2021/06/23 04:44:54;;;;;;;1999.90;999.90;;;;;;;22.88;88.81;95745.56;5048263;28;20812;-68
2021/06/23 04:47:21;;;;;;;1999.90;999.90;;;;;;;23.04;88.36;95752.16;5048644;28;20263;-68
2021/06/23 04:49:48;;;;;;;1999.90;999.90;;;;;;;23.19;87.86;95755.69;5048137;28;20205;-68
2021/06/23 04:52:17;;;;;;;1999.90;999.90;;;;;;;23.28;87.63;95755.34;5048368;28;20201;-68
2021/06/23 04:54:44;;;;;;;1999.90;999.90;;;;;;;23.39;88.82;95759.63;5048314;28;20208;-68
2021/06/23 04:57:11;;;;;;;1999.90;999.90;;;;;;;23.48;86.59;95759.31;5048730;28;20235;-68
2021/06/23 04:59:38;;;;;;;1999.90;999.90;;;;;;;23.53;87.54;95751.78;5051844;28;20236;-68
2021/06/23 05:02:05;;;;;;;1999.90;999.90;;;;;;;23.61;87.59;95749.94;5052152;28;20216;-68
2021/06/23 05:04:33;;;;;;;1999.90;999.90;;;;;;;23.70;86.71;95758.31;5051680;28;20201;-68
2021/06/23 05:07:02;;;;;;;1999.90;999.90;;;;;;;23.93;85.09;95760.72;5052067;28;20207;-68
2021/06/23 05:09:31;;;;;;;1999.90;999.90;;;;;;;24.14;84.04;95763.47;5052044;28;20204;-68
2021/06/23 05:11:58;;;;;;;1999.90;999.90;;;;;;;24.11;84.78;95760.81;5052158;28;20208;-68
2021/06/23 05:14:26;;;;;;;1999.90;999.90;;;;;;;24.26;85.24;95763.16;5052088;28;20204;-68
2021/06/23 05:16:53;;;;;;;1999.90;999.90;;;;;;;24.36;83.74;95761.66;5051765;28;20291;-68
2021/06/23 05:19:20;;;;;;;1999.90;999.90;;;;;;;24.47;84.51;95767.78;5051810;28;20244;-68
2021/06/23 05:21:47;;;;;;;1999.90;999.90;;;;;;;24.60;83.36;95770.84;5051638;28;20209;-68
2021/06/23 05:24:15;;;;;;;1999.90;999.90;;;;;;;24.54;84.48;95767.81;5051381;28;20205;-67
2021/06/23 05:26:43;;;;;;;1999.90;999.90;;;;;;;24.71;84.46;95769.72;5051436;28;20197;-68
2021/06/23 05:29:11;;;;;;;1999.90;999.90;;;;;;;24.77;81.96;95764.78;5051313;28;20251;-68
2021/06/23 05:31:38;;;;;;;1999.90;999.90;;;;;;;24.82;83.93;95765.19;5051411;28;20196;-68
2021/06/23 05:34:05;;;;;;;1999.90;999.90;;;;;;;24.77;83.87;95760.25;5051187;28;20213;-69
2021/06/23 05:36:32;;;;;;;1999.90;999.90;;;;;;;25.07;83.02;95761.81;5051261;28;20771;-69
2021/06/23 05:38:59;;;;;;;1999.90;999.90;;;;;;;24.89;83.13;95766.38;5051608;28;20205;-67
2021/06/23 05:41:26;;;;;;;1999.90;999.90;;;;;;;25.02;83.89;95760.28;5051151;28;20240;-66
2021/06/23 05:43:55;;;;;;;1999.90;999.90;;;;;;;25.05;85.65;95758.78;5051235;28;20193;-67
2021/06/23 05:46:22;;;;;;;1999.90;999.90;;;;;;;25.36;84.35;95768.66;5051349;28;20661;-66
2021/06/23 05:48:49;;;;;;;1999.90;999.90;;;;;;;25.41;80.77;95770.16;5051337;28;20197;-68
2021/06/23 05:51:16;;;;;;;1999.90;999.90;;;;;;;25.59;81.09;95769.06;5051264;28;20200;-68
2021/06/23 05:53:43;;;;;;;1999.90;999.90;;;;;;;25.75;80.41;95768.66;5051323;28;20204;-67
2021/06/23 05:56:11;;;;;;;1999.90;999.90;;;;;;;25.64;81.16;95768.66;5051032;28;20200;-67
2021/06/23 05:58:38;;;;;;;1999.90;999.90;;;;;;;25.64;81.16;95768.66;5050845;28;20296;-67
2021/06/23 06:01:06;;;;;;;1999.90;999.90;;;;;;;25.78;79.51;95775.09;5050744;28;20225;-67
2021/06/23 06:03:33;;;;;;;1999.90;999.90;;;;;;;26.05;76.62;95774.25;5050833;28;20205;-67
2021/06/23 06:06:02;;;;;;;1999.90;999.90;;;;;;;25.81;78.87;95772.41;5050979;28;20583;-67
2021/06/23 06:08:29;;;;;;;1999.90;999.90;;;;;;;25.87;79.07;95776.22;5051179;28;20197;-67
2021/06/23 06:10:56;;;;;;;1999.90;999.90;;;;;;;25.82;80.20;95773.16;5050222;28;20208;-67
2021/06/23 06:13:24;;;;;;;1999.90;999.90;;;;;;;26.01;80.16;95770.84;5050769;28;20212;-67
2021/06/23 06:15:51;;;;;;;1999.90;999.90;;;;;;;26.54;78.81;95778.66;5050863;28;20197;-67
2021/06/23 06:18:24;;;;;;;1999.90;999.90;;;;;;;26.84;79.30;95777.34;5050749;28;20205;-68
2021/06/23 06:20:53;;;;;;;1999.90;999.90;;;;;;;27.08;75.59;95781.00;5050907;28;20700;-68
2021/06/23 06:23:20;;;;;;;1999.90;999.90;;;;;;;27.12;76.47;95776.41;5050415;28;20233;-68
2021/06/23 06:25:47;;;;;;;1999.90;999.90;;;;;;;27.19;75.54;95776.34;5050421;28;20224;-68
2021/06/23 06:28:14;;;;;;;1999.90;999.90;;;;;;;27.35;75.81;95774.66;5050453;28;20197;-69
2021/06/23 06:30:41;;;;;;;1999.90;999.90;;;;;;;27.68;72.72;95777.84;5050257;28;20205;-68
2021/06/23 06:33:08;;;;;;;1999.90;999.90;;;;;;;27.76;72.99;95781.97;5050664;28;20201;-68
2021/06/23 06:35:37;;;;;;;1999.90;999.90;;;;;;;27.74;74.59;95773.59;5050197;28;20287;-68
2021/06/23 06:38:04;;;;;;;1999.90;999.90;;;;;;;27.47;74.44;95775.34;5050104;28;20768;-68
2021/06/23 06:40:31;;;;;;;1999.90;999.90;;;;;;;27.50;72.37;95779.94;5049947;28;20229;-68
2021/06/23 06:42:58;;;;;;;1999.90;999.90;;;;;;;27.58;72.72;95774.13;5050079;28;20225;-68
2021/06/23 06:45:26;;;;;;;1999.90;999.90;;;;;;;27.70;72.18;95778.19;5049105;28;20204;-68
2021/06/23 06:47:53;;;;;;;1999.90;999.90;;;;;;;27.82;72.84;95783.81;5050026;28;20216;-68
2021/06/23 06:50:20;;;;;;;1999.90;999.90;;;;;;;27.93;75.57;95778.34;5050580;28;20201;-67
2021/06/23 06:52:49;;;;;;;1999.90;999.90;;;;;;;28.15;76.39;95787.66;5050164;28;20197;-67
2021/06/23 06:55:21;;;;;;;1999.90;999.90;;;;;;;28.21;72.05;95779.97;5050336;28;20270;-67
2021/06/23 06:57:49;;;;;;;1999.90;999.90;;;;;;;28.30;69.79;95779.47;5050184;28;20278;-68
2021/06/23 07:00:17;;;;;;;1999.90;999.90;;;;;;;28.25;70.87;95776.09;5049835;28;20307;-67
2021/06/23 07:02:44;;;;;;;1999.90;999.90;;;;;;;28.26;72.16;95779.53;5050064;28;20193;-68
2021/06/23 07:05:11;;;;;;;1999.90;999.90;;;;;;;28.40;72.50;95784.69;5049768;28;20208;-68
2021/06/23 07:07:38;;;;;;;1999.90;999.90;;;;;;;28.64;71.02;95780.19;5049870;28;20211;-68
2021/06/23 07:10:07;;;;;;;1999.90;999.90;;;;;;;28.82;72.18;95783.41;5049831;28;20197;-68
2021/06/23 07:12:35;;;;;;;1999.90;999.90;;;;;;;28.76;70.50;95777.00;5049762;28;20688;-68
2021/06/23 07:15:02;;;;;;;1999.90;999.90;;;;;;;28.72;71.89;95778.97;5049812;28;20208;-68
2021/06/23 07:17:30;;;;;;;1999.90;999.90;;;;;;;28.87;74.91;95774.16;5049495;28;20212;-68
2021/06/23 07:19:57;;;;;;;1999.90;999.90;;;;;;;29.11;67.81;95781.06;5049315;28;20703;-67
2021/06/23 07:22:24;;;;;;;1999.90;999.90;;;;;;;29.26;70.99;95773.56;5049083;28;20266;-67
2021/06/23 07:24:51;;;;;;;1999.90;999.90;;;;;;;29.27;71.60;95775.09;5049493;28;20197;-67
2021/06/23 07:27:20;;;;;;;1999.90;999.90;;;;;;;29.16;72.28;95774.50;5049481;28;20734;-68
2021/06/23 07:29:47;;;;;;;1999.90;999.90;;;;;;;29.35;70.74;95768.47;5049395;28;20201;-66
2021/06/23 07:32:17;;;;;;;1999.90;999.90;;;;;;;29.57;69.84;95764.28;5049604;28;20222;-67
2021/06/23 07:37:25;;;;;;;1999.90;999.90;;;;;;;29.80;68.81;95766.16;5049524;28;20184;-68
2021/06/23 07:39:53;;;;;;;1999.90;999.90;;;;;;;29.93;66.52;95773.22;5048988;28;20229;-67
2021/06/23 07:42:21;;;;;;;1999.90;999.90;;;;;;;30.06;62.43;95765.31;5048997;28;20269;-67
2021/06/23 07:44:52;;;;;;;1999.90;999.90;;;;;;;30.23;62.89;95756.16;5049618;28;20209;-67
2021/06/23 07:47:22;;;;;;;1999.90;999.90;;;;;;;30.39;62.11;95765.44;5049469;28;20231;-67
2021/06/23 07:49:49;;;;;;;1999.90;999.90;;;;;;;30.48;63.18;95763.72;5049197;28;20200;-67
2021/06/23 07:52:32;;;;;;;1999.90;999.90;;;;;;;30.54;61.76;95764.72;5048998;28;20204;-67
2021/06/23 07:55:09;;;;;;;1999.90;999.90;;;;;;;30.30;62.27;95765.97;5048862;28;20242;-67
2021/06/23 08:08:44;;;;;;;1999.90;999.90;;;;;;;31.02;59.14;95776.75;5029427;28;20615;-67
2021/06/23 08:11:17;;;;;;;1999.90;999.90;;;;;;;30.94;63.65;95775.34;5028874;28;20688;-68
2021/06/23 08:13:46;;;;;;;1999.90;999.90;;;;;;;31.22;63.51;95769.34;5028986;28;20784;-67
2021/06/23 08:16:13;;;;;;;1999.90;999.90;;;;;;;31.38;62.58;95771.28;5028791;28;20248;-68
2021/06/23 08:18:40;;;;;;;1999.90;999.90;;;;;;;31.30;63.37;95768.00;5028860;28;20206;-67
2021/06/23 08:21:08;;;;;;;1999.90;999.90;;;;;;;31.57;62.77;95778.50;5028802;28;20233;-67
2021/06/23 08:23:35;;;;;;;1999.90;999.90;;;;;;;31.50;63.56;95776.72;5028784;28;20267;-67
2021/06/23 08:26:02;;;;;;;1999.90;999.90;;;;;;;31.47;61.92;95774.13;5028944;28;20208;-68
2021/06/23 08:28:29;;;;;;;1999.90;999.90;;;;;;;31.47;59.88;95772.19;5029082;28;20210;-67
2021/06/23 08:30:58;;;;;;;1999.90;999.90;;;;;;;31.70;59.39;95773.16;5029100;28;20267;-67
2021/06/23 08:33:26;;;;;;;1999.90;999.90;;;;;;;31.74;57.28;95765.75;5030922;28;20558;-67
2021/06/23 08:35:54;;;;;;;1999.90;999.90;;;;;;;32.07;58.78;95777.19;5032819;28;20194;-67
2021/06/23 08:38:22;;;;;;;1999.90;999.90;;;;;;;32.16;57.77;95772.72;5033234;28;20205;-68
2021/06/23 08:40:49;;;;;;;1999.90;999.90;;;;;;;32.10;57.12;95771.72;5032478;28;20222;-68
2021/06/23 08:43:17;;;;;;;1999.90;999.90;;;;;;;32.36;56.89;95770.63;5032729;28;20248;-68
2021/06/23 08:45:45;;;;;;;1999.90;999.90;;;;;;;32.14;56.10;95769.69;5032518;28;20201;-67
2021/06/23 08:48:14;;;;;;;1999.90;999.90;;;;;;;32.07;52.21;95769.13;5032827;28;20206;-66
2021/06/23 08:50:42;;;;;;;1999.90;999.90;;;;;;;32.43;50.42;95772.34;5032614;28;20194;-67
2021/06/23 08:53:09;;;;;;;1999.90;999.90;;;;;;;32.61;49.84;95769.13;5032612;28;20201;-67
2021/06/23 08:55:37;;;;;;;1999.90;999.90;;;;;;;32.86;48.59;95769.94;5032222;28;20303;-67
2021/06/23 08:58:05;;;;;;;1999.90;999.90;;;;;;;32.98;47.73;95767.66;5032497;28;20205;-67
2021/06/23 09:00:33;;;;;;;1999.90;999.90;;;;;;;32.82;46.07;95779.31;5032255;28;20209;-67
2021/06/23 09:03:02;;;;;;;1999.90;999.90;;;;;;;32.85;46.80;95771.09;5032292;28;20264;-67
2021/06/23 09:05:47;;;;;;;1999.90;999.90;;;;;;;32.47;49.18;95773.00;5032316;28;20206;-67
2021/06/23 09:08:28;;;;;;;1999.90;999.90;;;;;;;32.60;50.97;95765.69;5031961;28;20232;-68
2021/06/23 09:10:55;;;;;;;1999.90;999.90;;;;;;;33.06;49.45;95774.34;5032318;28;20629;-67
2021/06/23 09:13:23;;;;;;;1999.90;999.90;;;;;;;33.11;46.60;95766.47;5031917;28;20202;-68
2021/06/23 09:15:55;;;;;;;1999.90;999.90;;;;;;;33.29;47.84;95772.06;5031790;28;21070;-67
2021/06/23 09:18:23;;;;;;;1999.90;999.90;;;;;;;33.48;49.71;95770.28;5031906;28;20186;-67
2021/06/23 09:20:54;;;;;;;1999.90;999.90;;;;;;;33.45;48.10;95767.72;5031823;28;20226;-67
2021/06/23 09:23:54;;;;;;;1999.90;999.90;;;;;;;33.49;47.33;95774.47;5031950;28;20186;-67
2021/06/23 09:26:22;;;;;;;1999.90;999.90;;;;;;;33.75;48.07;95767.09;5049245;28;20203;-67
2021/06/23 09:29:08;;;;;;;1999.90;999.90;;;;;;;33.71;44.90;95764.53;5051846;28;20197;-67
2021/06/23 09:31:55;;;;;;;1999.90;999.90;;;;;;;33.64;46.30;95764.72;5051706;28;20202;-67
2021/06/23 09:34:23;;;;;;;1999.90;999.90;;;;;;;33.96;46.01;95758.28;5051403;28;20239;-68
2021/06/23 09:36:52;;;;;;;1999.90;999.90;;;;;;;34.25;45.05;95762.66;5051646;28;20216;-68
2021/06/23 09:39:21;;;;;;;1999.90;999.90;;;;;;;34.20;44.86;95764.00;5051603;28;20247;-68
2021/06/23 09:41:49;;;;;;;1999.90;999.90;;;;;;;34.40;41.67;95763.66;5051091;28;20232;-68
2021/06/23 09:44:17;;;;;;;1999.90;999.90;;;;;;;34.29;41.69;95763.28;5050660;28;20196;-68
2021/06/23 09:46:46;;;;;;;1999.90;999.90;;;;;;;33.95;41.62;95762.16;5051354;28;20193;-68
2021/06/23 09:49:16;;;;;;;1999.90;999.90;;;;;;;33.91;43.71;95763.47;5051285;28;20263;-67
2021/06/23 09:51:46;;;;;;;1999.90;999.90;;;;;;;33.93;46.61;95767.22;5051429;28;20186;-68
2021/06/23 09:54:17;;;;;;;1999.90;999.90;;;;;;;34.08;46.12;95760.13;5051448;28;20204;-68
2021/06/23 09:56:45;;;;;;;1999.90;999.90;;;;;;;33.85;44.47;95757.88;5051567;28;20193;-68
2021/06/23 09:59:25;;;;;;;1999.90;999.90;;;;;;;33.74;45.84;95757.50;5051281;28;20255;-67
2021/06/23 10:01:52;;;;;;;1999.90;999.90;;;;;;;34.11;45.45;95755.81;5050958;28;20651;-68
2021/06/23 10:04:19;;;;;;;1999.90;999.90;;;;;;;34.13;41.64;95756.88;5051148;28;20215;-68
2021/06/23 10:06:47;;;;;;;1999.90;999.90;;;;;;;34.32;41.48;95759.72;5051301;28;20631;-68
2021/06/23 10:09:24;;;;;;;1999.90;999.90;;;;;;;34.42;44.02;95758.59;5050817;28;20189;-68
2021/06/23 10:11:53;;;;;;;1999.90;999.90;;;;;;;33.85;43.06;95768.69;5051119;28;20204;-68
2021/06/23 10:14:22;;;;;;;1999.90;999.90;;;;;;;33.59;42.47;95759.13;5050502;28;20259;-67
2021/06/23 10:16:50;;;;;;;1999.90;999.90;;;;;;;33.67;43.62;95752.34;5050964;28;20201;-68
2021/06/23 10:19:18;;;;;;;1999.90;999.90;;;;;;;33.84;42.57;95750.97;5050729;28;20197;-68
2021/06/23 10:21:46;;;;;;;1999.90;999.90;;;;;;;33.95;41.04;95751.38;5050788;28;20240;-68
2021/06/23 10:24:15;;;;;;;1999.90;999.90;;;;;;;33.99;40.87;95746.59;5050521;28;20610;-67
2021/06/23 10:26:48;;;;;;;1999.90;999.90;;;;;;;34.20;41.86;95749.75;5050587;28;20319;-67
2021/06/23 10:29:20;;;;;;;1999.90;999.90;;;;;;;34.20;40.34;95747.06;5050910;28;20196;-69
2021/06/23 10:31:48;;;;;;;1999.90;999.90;;;;;;;34.26;40.70;95742.59;5050493;28;20190;-68
2021/06/23 10:34:18;;;;;;;1999.90;999.90;;;;;;;34.15;40.55;95749.09;5050698;28;20576;-69
2021/06/23 10:36:46;;;;;;;1999.90;999.90;;;;;;;34.32;40.16;95746.22;5050332;28;20189;-68
2021/06/23 10:39:15;;;;;;;1999.90;999.90;;;;;;;34.20;40.22;95737.00;5050653;28;20200;-68
2021/06/23 10:41:47;;;;;;;1999.90;999.90;;;;;;;34.19;42.81;95734.75;5050010;28;20243;-68
2021/06/23 10:44:20;;;;;;;1999.90;999.90;;;;;;;34.49;37.32;95734.75;5050313;28;20619;-68
2021/06/23 10:46:48;;;;;;;1999.90;999.90;;;;;;;34.59;37.61;95738.25;5050303;28;20197;-68
2021/06/23 10:49:19;;;;;;;1999.90;999.90;;;;;;;34.77;38.62;95732.94;5050073;28;20204;-69
2021/06/23 10:51:50;;;;;;;1999.90;999.90;;;;;;;34.57;36.55;95735.97;5050034;28;20213;-69
2021/06/23 10:54:36;;;;;;;1999.90;999.90;;;;;;;34.61;36.15;95730.47;5049854;28;20612;-69
2021/06/23 10:57:24;;;;;;;1999.90;999.90;;;;;;;34.37;36.55;95727.50;5049852;28;20189;-68
2021/06/23 10:59:52;;;;;;;1999.90;999.90;;;;;;;34.38;38.15;95736.34;5049802;28;20612;-68
2021/06/23 11:02:27;;;;;;;1999.90;999.90;;;;;;;34.41;36.95;95732.78;5050084;28;20228;-68
2021/06/23 11:05:11;;;;;;;1999.90;999.90;;;;;;;34.14;37.00;95734.09;5047959;28;20204;-69
2021/06/23 11:07:41;;;;;;;1999.90;999.90;;;;;;;34.23;37.01;95736.13;5033623;28;20212;-68
2021/06/23 11:10:31;;;;;;;1999.90;999.90;;;;;;;34.10;38.18;95738.88;5029371;28;20233;-69
2021/06/23 11:13:03;;;;;;;1999.90;999.90;;;;;;;34.34;36.98;95741.13;5046841;28;20216;-69
2021/06/23 11:15:40;;;;;;;1999.90;999.90;;;;;;;34.41;36.62;95738.94;5049548;28;20609;-67